Kenilworth, NJ

2:04 AM EST on November 24, 2014 (GMT -0500)
Kenilworth, N.J. | Change Station
CLOSE
Current Station
Personal Weather Station
Location: Kenilworth, NJ
Elevation: 92 ft
Nearby Weather Stations

Elev 92 ft 40.67 °N, 74.30 °W | Updated 4 minutes ago

Rain
Rain
55.3 °F
Feels Like 55.3 °F
N
2.0
Wind Variable Wind from SSE
Gusts 8.0 mph

Today
High -- | Low -- °F
--% Chance of Precip.
Yesterday
High -- | Low -- °F
Precip. -- in
6:54 AM 4:33 PM
Waxing Crescent, 4% visible
Pressure 29.89 in
Visibility 5.0 miles
Clouds Scattered Clouds 1100 ft
Mostly Cloudy 2900 ft
Overcast 4300 ft
Dew Point 53 °F
Humidity 92%
Rainfall 0.02 in
Snow Depth Not available.
UV 0.0 out of 12
Pollen .10 out of 12
Air Quality Not available.
Flu Activity Not available.
METAR KLDJ 240655Z AUTO 15006KT 5SM BR SCT011 BKN029 OVC043 15/13 A2989 RMK AO2 T01500133

More Conditions Fewer Conditions

Pressure 29.89 in
Visibility 5.0 miles
Clouds Scattered Clouds 1100 ft
Mostly Cloudy 2900 ft
Overcast 4300 ft
Dew Point 53 °F
Humidity 92%
Rainfall 0.02 in
Snow Depth Not available.
UV 0.0 out of 12
Pollen .10 out of 12
Air Quality Not available.
Flu Activity Not available.
METAR KLDJ 240655Z AUTO 15006KT 5SM BR SCT011 BKN029 OVC043 15/13 A2989 RMK AO2 T01500133

More Conditions Fewer Conditions

10-Day Weather Forecast

Almanac

Astronomy

Nov. 24, 2014 Rise Set
Actual Time
Civil Twilight
Nautical Twilight
Astronomical Twilight
Moon
Length of Visible Light
Length of Day
Tomorrow will be .
, % of the Moon is Illuminated

Today's Extremes

State Highs State Lows

Community

WunderPhotos

Upload Photos

1,773,295 photos uploaded!

WunderBlogs® & News

Nearby

Air Quality

  Air Quality AQ Index Pollutant
Not available.

Snow Depth

Station Depth Elevation

Earthquake Activity

City Distance Mag. Time & Date
Minimum magnitude displayed is 2.5.

Coastal Water Temperatures

Place Temperature

Nearby Weather Stations